createdAt,value
2018-05-24T00:01:44.859Z,13.80
2018-05-24T00:04:11.175Z,13.80
2018-05-24T00:06:37.410Z,13.80
2018-05-24T00:09:04.448Z,13.80
2018-05-24T00:11:31.089Z,13.80
2018-05-24T00:13:58.089Z,13.70
2018-05-24T00:16:24.366Z,13.60
2018-05-24T00:18:50.633Z,13.60
2018-05-24T00:21:17.633Z,13.70
2018-05-24T00:23:43.887Z,13.60
2018-05-24T00:26:10.151Z,13.60
2018-05-24T00:28:36.447Z,13.60
2018-05-24T00:31:02.716Z,13.60
2018-05-24T00:33:29.732Z,13.60
2018-05-24T00:35:55.962Z,13.60
2018-05-24T00:38:22.237Z,13.60
2018-05-24T00:40:48.487Z,13.70
2018-05-24T00:43:15.507Z,13.70
2018-05-24T00:45:41.725Z,13.70
2018-05-24T00:48:08.012Z,13.80
2018-05-24T00:50:34.978Z,13.70
2018-05-24T00:53:01.977Z,13.70
2018-05-24T00:55:41.286Z,13.70
2018-05-24T00:58:07.551Z,13.60
2018-05-24T01:00:33.812Z,13.70
2018-05-24T01:03:00.088Z,13.70
2018-05-24T01:05:26.348Z,13.80
2018-05-24T01:07:52.614Z,13.70
2018-05-24T01:10:18.842Z,13.70
2018-05-24T01:12:45.111Z,13.60
2018-05-24T01:15:12.172Z,13.50
2018-05-24T01:17:38.373Z,13.50
2018-05-24T01:20:04.731Z,13.40
2018-05-24T01:22:31.708Z,13.30
2018-05-24T01:24:57.979Z,13.20
2018-05-24T01:27:24.207Z,13.20
2018-05-24T01:29:50.464Z,13.30
2018-05-24T01:32:16.716Z,13.20
2018-05-24T01:34:42.950Z,13.10
2018-05-24T01:37:21.331Z,13.00
2018-05-24T01:39:47.569Z,13.00
2018-05-24T01:42:13.781Z,13.00
2018-05-24T01:44:40.077Z,13.10
2018-05-24T01:47:07.069Z,13.00
2018-05-24T01:49:33.304Z,12.90
2018-05-24T01:51:59.533Z,12.80
2018-05-24T01:54:25.764Z,12.80
2018-05-24T01:56:52.093Z,12.70
2018-05-24T01:59:18.334Z,12.60
2018-05-24T02:01:44.593Z,12.50
2018-05-24T02:04:10.827Z,12.50
2018-05-24T02:06:37.092Z,12.40
2018-05-24T02:09:04.293Z,12.40
2018-05-24T02:11:30.549Z,12.30
2018-05-24T02:13:56.805Z,12.30
2018-05-24T02:16:23.103Z,12.30
2018-05-24T02:18:49.646Z,12.30
2018-05-24T02:21:15.922Z,12.20
2018-05-24T02:23:42.152Z,12.20
2018-05-24T02:26:08.418Z,12.20
2018-05-24T02:28:34.656Z,12.20
2018-05-24T02:31:00.893Z,12.10
2018-05-24T02:33:27.147Z,12.10
2018-05-24T02:35:54.233Z,12.20
2018-05-24T02:38:20.375Z,12.10
2018-05-24T02:40:46.629Z,12.10
2018-05-24T02:43:12.880Z,12.00
2018-05-24T02:45:39.105Z,12.00
2018-05-24T02:48:05.383Z,12.00
2018-05-24T02:50:32.394Z,12.00
2018-05-24T02:52:59.003Z,12.10
2018-05-24T02:55:25.260Z,12.00
2018-05-24T02:57:51.813Z,12.00
2018-05-24T03:00:18.042Z,11.90
2018-05-24T03:02:44.303Z,11.80
2018-05-24T03:05:11.509Z,11.80
2018-05-24T03:07:38.538Z,11.80
2018-05-24T03:10:05.506Z,11.70
2018-05-24T03:12:31.744Z,11.70
2018-05-24T03:14:58.020Z,11.70
2018-05-24T03:17:25.037Z,11.80
2018-05-24T03:19:51.275Z,11.70
2018-05-24T03:22:17.517Z,11.70
2018-05-24T03:24:43.813Z,11.70
2018-05-24T03:27:10.773Z,11.80
2018-05-24T03:29:37.757Z,11.80
2018-05-24T03:32:03.967Z,11.70
2018-05-24T03:34:30.944Z,11.70
2018-05-24T03:36:57.158Z,11.60
2018-05-24T03:39:23.428Z,11.60
2018-05-24T03:41:49.682Z,11.60
2018-05-24T03:44:15.924Z,11.60
2018-05-24T03:46:42.177Z,11.50
2018-05-24T03:49:09.163Z,11.50
2018-05-24T03:51:35.414Z,11.00
2018-05-24T03:54:02.425Z,11.50
2018-05-24T03:56:29.378Z,11.50
2018-05-24T03:59:08.185Z,11.50
2018-05-24T04:01:46.635Z,11.50
2018-05-24T04:04:25.075Z,11.60
2018-05-24T04:06:51.325Z,11.70
2018-05-24T04:09:17.540Z,11.70
2018-05-24T04:11:43.823Z,11.80
2018-05-24T04:14:10.048Z,11.90
2018-05-24T04:16:36.324Z,11.90
2018-05-24T04:19:02.559Z,12.10
2018-05-24T04:21:29.579Z,12.10
2018-05-24T04:23:55.834Z,12.10
2018-05-24T04:26:22.781Z,12.10
2018-05-24T04:28:49.818Z,12.00
2018-05-24T04:31:16.054Z,12.10
2018-05-24T04:33:42.320Z,12.10
2018-05-24T04:36:17.565Z,12.10
2018-05-24T04:38:43.822Z,12.10
2018-05-24T04:41:10.018Z,12.20
2018-05-24T04:43:37.009Z,12.30
2018-05-24T04:46:03.304Z,12.40
2018-05-24T04:48:30.325Z,12.50
2018-05-24T04:50:56.594Z,12.60
2018-05-24T04:53:22.836Z,12.70
2018-05-24T04:55:49.838Z,12.80
2018-05-24T04:58:16.877Z,12.90
2018-05-24T05:00:43.849Z,13.20
2018-05-24T05:03:10.164Z,13.40
2018-05-24T05:05:36.424Z,13.40
2018-05-24T05:08:02.691Z,13.40
2018-05-24T05:10:29.674Z,13.40
2018-05-24T05:12:56.625Z,13.40
2018-05-24T05:15:22.885Z,13.40
2018-05-24T05:17:49.131Z,13.40
2018-05-24T05:20:15.379Z,13.40
2018-05-24T05:22:41.635Z,13.50
2018-05-24T05:25:07.979Z,13.50
2018-05-24T05:27:34.190Z,13.70
2018-05-24T05:30:00.443Z,13.70
2018-05-24T05:32:26.707Z,13.70
2018-05-24T05:34:52.983Z,13.70
2018-05-24T05:37:19.586Z,13.80
2018-05-24T05:39:46.197Z,13.80
2018-05-24T05:42:12.481Z,13.90
2018-05-24T05:44:38.704Z,14.10
2018-05-24T05:47:05.019Z,14.00
2018-05-24T05:49:31.996Z,14.00
2018-05-24T05:51:58.262Z,14.20
2018-05-24T05:54:24.524Z,14.30
2018-05-24T05:56:51.296Z,14.30
2018-05-24T05:59:18.317Z,14.30
2018-05-24T06:01:44.609Z,14.30
2018-05-24T06:04:10.878Z,14.30
2018-05-24T06:06:37.125Z,14.30
2018-05-24T06:09:03.459Z,14.40
2018-05-24T06:11:30.464Z,14.50
2018-05-24T06:13:56.770Z,14.60
2018-05-24T06:16:23.056Z,14.80
2018-05-24T06:18:49.377Z,14.90
2018-05-24T06:21:15.617Z,14.90
2018-05-24T06:23:41.890Z,14.80
2018-05-24T06:26:08.141Z,14.90
2018-05-24T06:28:34.513Z,14.80
2018-05-24T06:31:01.387Z,14.90
2018-05-24T06:33:27.695Z,15.00
2018-05-24T06:35:54.694Z,15.00
2018-05-24T06:38:20.956Z,14.90
2018-05-24T06:40:48.464Z,14.80
2018-05-24T06:43:15.504Z,14.80
2018-05-24T06:45:42.504Z,14.80
2018-05-24T06:48:08.754Z,14.70
2018-05-24T06:50:35.195Z,14.70
2018-05-24T06:53:01.460Z,14.60
2018-05-24T06:55:28.460Z,14.70
2018-05-24T06:57:55.071Z,14.60
2018-05-24T07:00:21.699Z,14.70
2018-05-24T07:02:48.639Z,14.60
2018-05-24T07:05:15.664Z,14.60
2018-05-24T07:07:41.936Z,14.50
2018-05-24T07:10:08.956Z,14.40
2018-05-24T07:12:35.940Z,14.40
2018-05-24T07:15:02.975Z,14.40
2018-05-24T07:17:29.284Z,14.40
2018-05-24T07:19:55.541Z,14.50
2018-05-24T07:22:21.844Z,14.50
2018-05-24T07:24:48.072Z,14.50
2018-05-24T07:27:14.311Z,14.60
2018-05-24T07:29:40.616Z,14.70
2018-05-24T07:32:07.620Z,14.60
2018-05-24T07:34:33.890Z,14.70
2018-05-24T07:37:00.173Z,14.70
2018-05-24T07:39:26.407Z,14.80
2018-05-24T07:41:52.669Z,14.90
2018-05-24T07:44:18.980Z,14.90
2018-05-24T07:46:45.207Z,14.90
2018-05-24T07:49:11.509Z,15.00
2018-05-24T07:51:37.716Z,15.10
2018-05-24T07:54:03.990Z,15.10
2018-05-24T07:56:30.951Z,15.10
2018-05-24T07:58:57.951Z,15.10
2018-05-24T08:01:24.182Z,15.20
2018-05-24T08:03:50.429Z,15.20
2018-05-24T08:06:16.669Z,15.20
2018-05-24T08:08:42.983Z,15.20
2018-05-24T08:11:09.929Z,15.30
2018-05-24T08:13:36.145Z,15.30
2018-05-24T08:16:02.667Z,15.40
2018-05-24T08:18:29.657Z,15.30
2018-05-24T08:20:55.911Z,15.40
2018-05-24T08:23:22.150Z,15.40
2018-05-24T08:25:48.485Z,15.60
2018-05-24T08:28:14.765Z,15.70
2018-05-24T08:30:41.741Z,15.70
2018-05-24T08:33:08.021Z,15.80
2018-05-24T08:35:34.287Z,15.90
2018-05-24T08:38:01.250Z,15.90
2018-05-24T08:40:28.245Z,16.00
2018-05-24T08:42:54.476Z,16.10
2018-05-24T08:45:20.743Z,16.00
2018-05-24T08:47:48.506Z,16.10
2018-05-24T08:50:14.781Z,16.10
2018-05-24T08:52:41.813Z,16.20
2018-05-24T08:55:08.088Z,16.20
2018-05-24T08:57:34.376Z,16.30
2018-05-24T09:00:02.097Z,16.30
2018-05-24T09:02:28.393Z,16.30
2018-05-24T09:04:54.673Z,16.40
2018-05-24T09:07:20.927Z,16.50
2018-05-24T09:09:47.187Z,16.40
2018-05-24T09:12:13.481Z,16.50
2018-05-24T09:14:39.731Z,16.50
2018-05-24T09:17:07.078Z,16.60
2018-05-24T09:19:33.656Z,16.80
2018-05-24T09:21:59.905Z,16.80
2018-05-24T09:24:26.193Z,17.00
2018-05-24T09:26:52.440Z,17.00
2018-05-24T09:29:18.796Z,17.00
2018-05-24T09:31:45.713Z,17.00
2018-05-24T09:34:11.981Z,17.20
2018-05-24T09:36:38.251Z,17.40
2018-05-24T09:39:05.271Z,17.50
2018-05-24T09:41:31.527Z,17.50
2018-05-24T09:43:57.752Z,17.50
2018-05-24T09:46:24.057Z,17.50
2018-05-24T09:48:50.306Z,17.50
2018-05-24T09:51:16.649Z,18.20
2018-05-24T09:53:42.881Z,18.60
2018-05-24T09:56:09.179Z,18.90
2018-05-24T09:58:35.436Z,19.30
2018-05-24T10:01:02.101Z,19.50
2018-05-24T10:03:28.338Z,19.60
2018-05-24T10:05:54.574Z,19.60
2018-05-24T10:08:20.870Z,19.60
2018-05-24T10:10:47.146Z,19.60
2018-05-24T10:13:13.426Z,20.00
2018-05-24T10:15:40.410Z,20.00
2018-05-24T10:18:07.062Z,19.90
2018-05-24T10:20:33.293Z,19.80
2018-05-24T10:22:59.584Z,19.70
2018-05-24T10:25:25.815Z,19.80
2018-05-24T10:27:52.081Z,19.80
2018-05-24T10:30:18.382Z,20.00
2018-05-24T10:32:44.711Z,20.20
2018-05-24T10:35:10.960Z,20.60
2018-05-24T10:37:37.177Z,21.10
2018-05-24T10:40:03.473Z,21.40
2018-05-24T10:42:29.722Z,21.20
2018-05-24T10:44:56.022Z,21.20
2018-05-24T10:47:23.012Z,21.10
2018-05-24T10:49:49.271Z,20.90
2018-05-24T10:52:15.610Z,20.50
2018-05-24T10:54:41.814Z,20.40
2018-05-24T10:57:08.101Z,20.30
2018-05-24T10:59:35.180Z,20.60
2018-05-24T11:02:01.393Z,20.60
2018-05-24T11:04:28.395Z,20.90
2018-05-24T11:06:55.363Z,21.20
2018-05-24T11:09:21.664Z,21.70
2018-05-24T11:11:48.012Z,22.00
2018-05-24T11:14:14.241Z,22.00
2018-05-24T11:16:40.508Z,22.40
2018-05-24T11:19:06.782Z,22.70
2018-05-24T11:21:33.806Z,22.90
2018-05-24T11:24:00.066Z,22.70
2018-05-24T11:26:27.052Z,22.60
2018-05-24T11:28:53.286Z,22.20
2018-05-24T11:31:19.532Z,21.70
2018-05-24T11:33:45.811Z,21.50
2018-05-24T11:36:12.095Z,21.80
2018-05-24T11:38:38.746Z,22.00
2018-05-24T11:41:04.992Z,22.30
2018-05-24T11:43:31.303Z,22.40
2018-05-24T11:45:57.506Z,22.50
2018-05-24T11:48:23.738Z,22.40
2018-05-24T11:50:49.997Z,22.40
2018-05-24T11:53:16.997Z,22.50
2018-05-24T11:55:43.260Z,22.60
2018-05-24T11:58:09.535Z,22.70
2018-05-24T12:00:35.761Z,22.70
2018-05-24T12:03:02.840Z,22.90
2018-05-24T12:05:29.056Z,23.00
2018-05-24T12:07:55.313Z,22.70
2018-05-24T12:10:21.716Z,22.70
2018-05-24T12:12:48.716Z,23.00
2018-05-24T12:15:15.033Z,23.40
2018-05-24T12:17:41.287Z,23.40
2018-05-24T12:20:07.542Z,23.20
2018-05-24T12:22:33.816Z,23.20
2018-05-24T12:25:00.807Z,23.20
2018-05-24T12:27:27.817Z,23.10
2018-05-24T12:29:54.441Z,22.80
2018-05-24T12:32:20.683Z,22.40
2018-05-24T12:34:46.997Z,22.30
2018-05-24T12:37:13.983Z,22.50
2018-05-24T12:39:40.242Z,22.50
2018-05-24T12:42:06.841Z,22.30
2018-05-24T12:44:33.110Z,22.00
2018-05-24T12:47:00.116Z,21.70
2018-05-24T12:49:26.396Z,21.70
2018-05-24T12:51:53.428Z,21.70
2018-05-24T12:54:19.677Z,21.70
2018-05-24T12:56:45.906Z,21.60
2018-05-24T12:59:12.176Z,21.80
2018-05-24T13:01:38.436Z,22.30
2018-05-24T13:04:04.705Z,22.70
2018-05-24T13:06:31.036Z,23.00
2018-05-24T13:08:58.037Z,22.80
2018-05-24T13:11:24.316Z,22.40
2018-05-24T13:13:51.361Z,22.00
2018-05-24T13:16:17.647Z,22.00
2018-05-24T13:18:44.717Z,21.20
2018-05-24T13:23:50.791Z,21.20
2018-05-24T13:26:17.772Z,21.30
2018-05-24T13:28:44.047Z,21.10
2018-05-24T13:31:10.333Z,20.80
2018-05-24T13:33:36.612Z,20.60
2018-05-24T13:36:02.932Z,20.40
2018-05-24T13:38:29.189Z,20.40
2018-05-24T13:40:55.449Z,20.00
2018-05-24T13:43:22.453Z,19.80
2018-05-24T13:45:48.717Z,19.60
2018-05-24T13:48:14.957Z,19.30
2018-05-24T13:50:41.258Z,19.30
2018-05-24T13:53:07.494Z,19.40
2018-05-24T13:55:33.788Z,19.20
2018-05-24T13:58:00.763Z,19.20
2018-05-24T14:00:30.023Z,19.00
2018-05-24T14:02:57.001Z,18.70
2018-05-24T14:05:24.087Z,18.40
2018-05-24T14:07:50.349Z,18.10
2018-05-24T14:10:16.626Z,17.80
2018-05-24T14:12:43.641Z,17.50
2018-05-24T14:15:09.913Z,17.20
2018-05-24T14:17:36.918Z,16.90
2018-05-24T14:20:03.173Z,16.70
2018-05-24T14:22:30.185Z,16.40
2018-05-24T14:24:56.484Z,16.20
2018-05-24T14:27:23.514Z,16.00
2018-05-24T14:29:50.180Z,15.70
2018-05-24T14:34:41.199Z,15.40
2018-05-24T14:37:07.529Z,15.20
2018-05-24T14:39:33.812Z,15.10
2018-05-24T14:42:00.846Z,15.10
2018-05-24T14:44:27.876Z,15.00
2018-05-24T14:46:54.543Z,15.00
2018-05-24T14:49:20.861Z,15.00
2018-05-24T14:51:47.132Z,14.90
2018-05-24T14:54:14.200Z,15.00
2018-05-24T14:56:40.430Z,15.00
2018-05-24T14:59:06.702Z,15.00
2018-05-24T15:01:32.955Z,15.00
2018-05-24T15:04:00.712Z,15.10
2018-05-24T15:06:26.993Z,15.10
2018-05-24T15:08:54.075Z,15.10
2018-05-24T15:11:20.705Z,15.00
2018-05-24T15:13:49.662Z,15.00
2018-05-24T15:16:15.975Z,15.00
2018-05-24T15:18:42.242Z,15.00
2018-05-24T15:21:08.511Z,15.00
2018-05-24T15:23:34.749Z,15.00
2018-05-24T15:26:01.025Z,15.00
2018-05-24T15:28:27.313Z,15.10
2018-05-24T15:30:54.343Z,15.10
2018-05-24T15:33:20.640Z,15.00
2018-05-24T15:35:46.903Z,15.00
2018-05-24T15:38:13.131Z,15.00
2018-05-24T15:40:40.166Z,15.00
2018-05-24T15:43:06.457Z,15.00
2018-05-24T15:45:33.451Z,14.90
2018-05-24T15:47:59.693Z,14.90
2018-05-24T15:50:25.958Z,14.80
2018-05-24T15:52:52.233Z,14.80
2018-05-24T15:55:18.517Z,14.80
2018-05-24T15:57:45.529Z,14.70
2018-05-24T16:00:11.812Z,14.70
2018-05-24T16:02:38.068Z,14.80
2018-05-24T16:05:04.396Z,14.80
2018-05-24T16:07:31.398Z,14.90
2018-05-24T16:09:57.669Z,14.90
2018-05-24T16:12:24.709Z,14.90
2018-05-24T16:14:50.947Z,15.00
2018-05-24T16:17:18.004Z,15.00
2018-05-24T16:19:44.238Z,15.00
2018-05-24T16:22:11.294Z,15.10
2018-05-24T16:24:38.308Z,15.10
2018-05-24T16:27:04.589Z,15.20
2018-05-24T16:29:30.877Z,15.20
2018-05-24T16:31:57.885Z,15.20
2018-05-24T16:34:24.163Z,15.20
2018-05-24T16:36:51.189Z,15.20
2018-05-24T16:39:17.544Z,15.20
2018-05-24T16:41:44.560Z,15.30
2018-05-24T16:44:10.819Z,15.30
2018-05-24T16:49:05.912Z,15.30
2018-05-24T16:51:32.876Z,15.40
2018-05-24T16:53:59.906Z,15.40
2018-05-24T16:56:26.154Z,15.40
2018-05-24T16:58:52.388Z,15.40
2018-05-24T17:01:18.685Z,15.40
2018-05-24T17:03:45.709Z,15.40
2018-05-24T17:06:11.974Z,15.40
2018-05-24T17:08:38.245Z,15.40
2018-05-24T17:11:04.593Z,15.40
2018-05-24T17:13:30.875Z,15.50
2018-05-24T17:15:57.855Z,15.70
2018-05-24T17:18:24.155Z,16.00
2018-05-24T17:20:51.680Z,16.30
2018-05-24T17:23:18.705Z,16.50
2018-05-24T17:25:44.995Z,16.80
2018-05-24T17:28:11.243Z,16.90
2018-05-24T17:30:37.559Z,17.00
2018-05-24T17:33:03.890Z,17.00
2018-05-24T17:35:30.900Z,17.10
2018-05-24T17:37:57.187Z,17.10
2018-05-24T17:40:23.425Z,17.10
2018-05-24T17:42:49.704Z,17.10
2018-05-24T17:45:16.728Z,17.20
2018-05-24T17:47:43.044Z,17.10
2018-05-24T17:50:09.344Z,17.00
2018-05-24T17:52:36.348Z,16.90
2018-05-24T17:55:02.724Z,16.70
2018-05-24T17:57:29.728Z,16.60
2018-05-24T17:59:56.775Z,16.50
2018-05-24T18:02:23.037Z,16.40
2018-05-24T18:04:49.298Z,16.30
2018-05-24T18:07:16.295Z,16.20
2018-05-24T18:09:42.544Z,16.10
2018-05-24T18:12:08.836Z,16.00
2018-05-24T18:14:35.484Z,15.90
2018-05-24T18:17:08.714Z,15.80
2018-05-24T18:19:35.523Z,15.60
2018-05-24T18:22:02.605Z,15.60
2018-05-24T18:24:28.875Z,15.50
2018-05-24T18:26:55.151Z,15.40
2018-05-24T18:29:21.593Z,15.30
2018-05-24T18:31:50.345Z,15.20
2018-05-24T18:34:18.908Z,15.10
2018-05-24T18:36:48.490Z,15.10
2018-05-24T18:39:15.781Z,15.00
2018-05-24T18:41:43.668Z,14.90
2018-05-24T18:44:10.705Z,14.90
2018-05-24T18:46:37.585Z,14.80
2018-05-24T18:49:05.061Z,14.80
2018-05-24T18:51:32.105Z,14.70
2018-05-24T18:53:58.341Z,14.60
2018-05-24T18:56:24.628Z,14.60
2018-05-24T18:58:51.291Z,14.50
2018-05-24T19:01:17.616Z,14.50
2018-05-24T19:03:44.684Z,14.50
2018-05-24T19:06:11.318Z,14.50
2018-05-24T19:08:37.571Z,14.40
2018-05-24T19:11:04.279Z,14.40
2018-05-24T19:13:30.935Z,14.30
2018-05-24T19:15:57.541Z,14.40
2018-05-24T19:18:24.564Z,14.40
2018-05-24T19:20:51.262Z,14.40
2018-05-24T19:23:17.555Z,14.30
2018-05-24T19:25:43.815Z,14.30
2018-05-24T19:28:10.869Z,14.20
2018-05-24T19:30:37.494Z,14.20
2018-05-24T19:33:04.558Z,14.00
2018-05-24T19:35:31.592Z,13.90
2018-05-24T19:37:57.892Z,13.80
2018-05-24T19:40:24.836Z,13.80
2018-05-24T19:42:51.621Z,13.70
2018-05-24T19:45:17.901Z,13.60
2018-05-24T19:47:44.979Z,13.60
2018-05-24T19:50:11.303Z,13.70
2018-05-24T19:52:38.295Z,13.60
2018-05-24T19:55:07.245Z,13.60
2018-05-24T19:57:33.506Z,13.70
2018-05-24T20:00:01.115Z,13.70
2018-05-24T20:02:27.426Z,13.70
2018-05-24T20:04:53.696Z,13.60
2018-05-24T20:07:19.949Z,13.50
2018-05-24T20:09:46.995Z,13.50
2018-05-24T20:12:14.039Z,13.50
2018-05-24T20:14:40.310Z,13.50
2018-05-24T20:17:06.605Z,13.60
2018-05-24T20:19:32.900Z,13.60
2018-05-24T20:21:59.131Z,13.50
2018-05-24T20:24:25.464Z,13.50
2018-05-24T20:26:52.149Z,13.40
2018-05-24T20:29:18.366Z,13.50
2018-05-24T20:31:44.651Z,13.50
2018-05-24T20:34:11.259Z,13.50
2018-05-24T20:36:37.531Z,13.40
2018-05-24T20:39:05.422Z,13.40
2018-05-24T20:41:32.264Z,13.40
2018-05-24T20:43:58.599Z,13.40
2018-05-24T20:46:24.921Z,13.30
2018-05-24T20:48:52.220Z,13.30
2018-05-24T20:51:19.060Z,13.20
2018-05-24T20:53:45.341Z,13.10
2018-05-24T20:56:13.129Z,13.00
2018-05-24T20:58:40.519Z,13.00
2018-05-24T21:01:06.819Z,12.90
2018-05-24T21:03:33.140Z,13.10
2018-05-24T21:05:59.418Z,13.00
2018-05-24T21:08:26.471Z,13.00
2018-05-24T21:10:54.139Z,12.90
2018-05-24T21:13:21.599Z,12.90
2018-05-24T21:15:48.250Z,12.80
2018-05-24T21:18:16.124Z,12.80
2018-05-24T21:20:43.096Z,12.80
2018-05-24T21:23:09.370Z,12.80
2018-05-24T21:25:36.494Z,12.70
2018-05-24T21:28:03.160Z,12.70
2018-05-24T21:30:30.598Z,12.60
2018-05-24T21:32:56.781Z,12.50
2018-05-24T21:35:23.074Z,12.40
2018-05-24T21:37:49.320Z,12.40
2018-05-24T21:40:17.424Z,12.40
2018-05-24T21:42:43.830Z,12.40
2018-05-24T21:45:10.125Z,12.40
2018-05-24T21:47:37.130Z,12.30
2018-05-24T21:50:03.444Z,12.30
2018-05-24T21:52:30.710Z,12.30
2018-05-24T21:54:57.365Z,12.30
2018-05-24T21:57:23.659Z,12.30
2018-05-24T21:59:50.705Z,12.30
2018-05-24T22:02:17.727Z,12.40
2018-05-24T22:04:44.727Z,12.30
2018-05-24T22:07:11.061Z,12.30
2018-05-24T22:09:38.079Z,12.40
2018-05-24T22:12:04.342Z,12.40
2018-05-24T22:14:31.331Z,12.30
2018-05-24T22:16:57.691Z,12.40
2018-05-24T22:19:23.959Z,12.40
2018-05-24T22:21:50.259Z,12.40
2018-05-24T22:24:16.534Z,12.50
2018-05-24T22:26:42.785Z,12.40
2018-05-24T22:29:09.815Z,12.40
2018-05-24T22:31:36.085Z,12.40
2018-05-24T22:34:02.335Z,12.30
2018-05-24T22:36:28.556Z,12.20
2018-05-24T22:38:54.831Z,12.20
2018-05-24T22:41:21.083Z,12.20
2018-05-24T22:43:47.331Z,12.30
2018-05-24T22:46:13.601Z,12.30
2018-05-24T22:48:39.876Z,12.40
2018-05-24T22:51:06.104Z,12.50
2018-05-24T22:53:32.375Z,12.50
2018-05-24T22:55:58.645Z,12.50
2018-05-24T22:58:25.272Z,12.50
2018-05-24T23:00:52.277Z,12.60
2018-05-24T23:03:18.523Z,12.60
2018-05-24T23:05:45.516Z,12.50
2018-05-24T23:08:12.554Z,12.60
2018-05-24T23:10:38.794Z,12.60
2018-05-24T23:13:05.784Z,12.50
2018-05-24T23:15:32.046Z,12.50
2018-05-24T23:17:58.312Z,12.40
2018-05-24T23:20:24.568Z,12.30
2018-05-24T23:22:51.567Z,12.30
2018-05-24T23:25:17.872Z,12.20
2018-05-24T23:27:44.087Z,12.20
2018-05-24T23:30:11.075Z,12.20
2018-05-24T23:32:37.322Z,12.20
2018-05-24T23:35:04.676Z,12.10
2018-05-24T23:37:30.912Z,12.10
2018-05-24T23:39:57.170Z,12.10
2018-05-24T23:42:24.201Z,12.00
2018-05-24T23:44:50.468Z,11.90
2018-05-24T23:47:16.722Z,11.90
2018-05-24T23:49:42.991Z,11.90
2018-05-24T23:52:09.269Z,11.90
2018-05-24T23:54:35.477Z,11.80
2018-05-24T23:57:01.727Z,11.80
2018-05-24T23:59:28.740Z,11.80
